createdAt,value
2019-03-31T00:00:46.290Z,69.50
2019-03-31T00:03:16.782Z,69.50
2019-03-31T00:05:47.780Z,70.20
2019-03-31T00:08:19.131Z,70.40
2019-03-31T00:10:51.100Z,70.70
2019-03-31T00:13:22.050Z,71.00
2019-03-31T00:15:53.600Z,71.30
2019-03-31T00:18:24.942Z,71.70
2019-03-31T00:20:56.699Z,71.70
2019-03-31T00:23:28.270Z,71.70
2019-03-31T00:26:00.803Z,71.70
2019-03-31T00:28:32.408Z,71.80
2019-03-31T00:31:04.183Z,72.60
2019-03-31T00:33:35.528Z,73.00
2019-03-31T00:36:08.726Z,72.70
2019-03-31T00:38:40.485Z,73.00
2019-03-31T00:41:11.629Z,73.00
2019-03-31T00:43:43.379Z,73.30
2019-03-31T00:46:14.754Z,73.70
2019-03-31T00:48:46.034Z,74.10
2019-03-31T00:51:17.046Z,74.40
2019-03-31T00:53:48.118Z,75.10
2019-03-31T00:56:19.390Z,76.20
2019-03-31T00:58:50.700Z,77.10
2019-03-31T01:01:36.715Z,77.40
2019-03-31T01:04:08.717Z,77.70
2019-03-31T01:06:40.934Z,77.90
2019-03-31T01:09:25.586Z,79.40
2019-03-31T01:11:57.974Z,78.70
2019-03-31T01:14:30.077Z,78.60
2019-03-31T01:17:03.084Z,78.60
2019-03-31T01:19:35.111Z,78.90
2019-03-31T01:22:07.853Z,79.20
2019-03-31T01:24:40.074Z,79.10
2019-03-31T01:27:13.048Z,79.30
2019-03-31T01:29:44.357Z,79.80
2019-03-31T01:32:15.953Z,81.50
2019-03-31T01:34:46.697Z,82.00
2019-03-31T01:37:20.245Z,82.50
2019-03-31T01:39:52.472Z,83.20
2019-03-31T01:42:23.671Z,84.00
2019-03-31T01:44:54.715Z,85.00
2019-03-31T01:47:26.281Z,85.90
2019-03-31T01:49:57.681Z,86.80
2019-03-31T01:52:28.780Z,87.40
2019-03-31T01:54:59.970Z,88.00
2019-03-31T01:57:31.536Z,88.60
2019-03-31T02:00:02.401Z,89.10
2019-03-31T02:02:36.078Z,89.10
2019-03-31T02:05:07.850Z,89.20
2019-03-31T02:07:39.412Z,89.40
2019-03-31T02:10:11.786Z,90.00
2019-03-31T02:12:43.086Z,90.50
2019-03-31T02:15:14.285Z,90.80
2019-03-31T02:17:46.054Z,91.20
2019-03-31T02:20:17.393Z,91.50
2019-03-31T02:22:48.342Z,91.70
2019-03-31T02:25:19.288Z,91.90
2019-03-31T02:27:50.843Z,92.50
2019-03-31T02:30:22.813Z,92.60
2019-03-31T02:32:53.629Z,92.90
2019-03-31T02:35:24.454Z,93.20
2019-03-31T02:37:56.045Z,93.60
2019-03-31T02:40:27.602Z,93.90
2019-03-31T02:42:59.574Z,94.30
2019-03-31T02:45:30.887Z,95.30
2019-03-31T02:48:02.906Z,96.30
2019-03-31T02:50:44.693Z,97.10
2019-03-31T02:53:17.692Z,97.50
2019-03-31T02:55:49.621Z,98.00
2019-03-31T02:58:22.052Z,98.50
2019-03-31T03:00:54.559Z,99.10
2019-03-31T03:03:26.565Z,99.00
2019-03-31T03:06:00.797Z,99.60
2019-03-31T03:08:34.576Z,99.90
2019-03-31T03:11:06.693Z,99.90
2019-03-31T03:13:39.777Z,99.90
2019-03-31T03:16:19.916Z,99.90
2019-03-31T03:18:51.895Z,99.90
2019-03-31T03:21:25.105Z,99.90
2019-03-31T03:23:58.094Z,99.90
2019-03-31T03:26:29.409Z,99.90
2019-03-31T03:29:01.011Z,99.90
2019-03-31T03:31:32.823Z,99.90
2019-03-31T03:34:05.338Z,99.90
2019-03-31T03:36:36.633Z,99.90
2019-03-31T03:39:09.480Z,99.90
2019-03-31T03:41:40.222Z,99.90
2019-03-31T03:44:12.540Z,99.90
2019-03-31T03:46:43.480Z,99.90
2019-03-31T03:49:15.608Z,99.90
2019-03-31T03:51:47.069Z,99.90
2019-03-31T03:54:18.832Z,99.90
2019-03-31T03:56:50.031Z,99.90
2019-03-31T03:59:21.334Z,99.90
2019-03-31T04:01:52.672Z,99.90
2019-03-31T04:04:23.620Z,99.90
2019-03-31T04:06:55.589Z,99.90
2019-03-31T04:09:27.587Z,99.90
2019-03-31T04:11:59.730Z,99.90
2019-03-31T04:14:31.695Z,99.90
2019-03-31T04:17:02.966Z,99.90
2019-03-31T04:19:34.192Z,99.90
2019-03-31T04:22:05.481Z,99.90
2019-03-31T04:24:36.650Z,99.90
2019-03-31T04:27:06.952Z,99.90
2019-03-31T04:29:38.799Z,99.90
2019-03-31T04:32:09.929Z,99.90
2019-03-31T04:34:41.238Z,99.90
2019-03-31T04:37:12.401Z,99.90
2019-03-31T04:39:44.027Z,99.90
2019-03-31T04:42:15.343Z,99.90
2019-03-31T04:44:47.093Z,99.90
2019-03-31T04:47:18.390Z,99.90
2019-03-31T04:49:50.052Z,99.90
2019-03-31T04:52:20.916Z,99.90
2019-03-31T04:54:52.110Z,99.90
2019-03-31T04:57:22.922Z,99.90
2019-03-31T04:59:54.606Z,99.90
2019-03-31T05:02:27.402Z,99.90
2019-03-31T05:04:58.544Z,99.90
2019-03-31T05:07:29.697Z,99.90
2019-03-31T05:10:01.236Z,99.90
2019-03-31T05:12:32.190Z,99.90
2019-03-31T05:15:03.956Z,99.90
2019-03-31T05:17:35.915Z,99.90
2019-03-31T05:20:08.658Z,99.90
2019-03-31T05:22:40.887Z,99.90
2019-03-31T05:25:12.635Z,99.90
2019-03-31T05:27:43.796Z,99.90
2019-03-31T05:30:14.888Z,99.90
2019-03-31T05:32:45.906Z,99.90
2019-03-31T05:35:17.229Z,99.90
2019-03-31T05:37:51.195Z,99.90
2019-03-31T05:40:22.190Z,99.90
2019-03-31T05:42:53.948Z,99.90
2019-03-31T05:45:25.508Z,99.90
2019-03-31T05:47:56.310Z,99.90
2019-03-31T05:50:27.965Z,99.90
2019-03-31T05:52:59.375Z,99.90
2019-03-31T05:55:30.809Z,99.90
2019-03-31T05:58:01.871Z,99.90
2019-03-31T06:00:41.362Z,99.90
2019-03-31T06:03:12.492Z,99.90
2019-03-31T06:05:43.650Z,99.90
2019-03-31T06:08:17.775Z,99.90
2019-03-31T06:10:49.489Z,99.90
2019-03-31T06:13:21.703Z,99.90
2019-03-31T06:15:53.421Z,99.90
2019-03-31T06:18:25.397Z,99.90
2019-03-31T06:20:56.725Z,99.90
2019-03-31T06:23:27.709Z,99.90
2019-03-31T06:25:59.036Z,99.90
2019-03-31T06:28:30.392Z,99.90
2019-03-31T06:31:01.900Z,99.90
2019-03-31T06:33:33.056Z,99.90
2019-03-31T06:36:03.729Z,99.90
2019-03-31T06:38:34.774Z,99.90
2019-03-31T06:41:06.485Z,99.90
2019-03-31T06:43:37.478Z,99.90
2019-03-31T06:46:11.494Z,99.90
2019-03-31T06:48:42.784Z,99.90
2019-03-31T06:51:17.007Z,99.90
2019-03-31T06:53:47.046Z,99.90
2019-03-31T06:56:19.027Z,99.90
2019-03-31T06:58:50.505Z,99.90
2019-03-31T07:01:22.277Z,99.90
2019-03-31T07:03:53.348Z,99.90
2019-03-31T07:06:24.375Z,99.90
2019-03-31T07:08:55.541Z,99.90
2019-03-31T07:11:26.493Z,99.90
2019-03-31T07:13:57.860Z,99.90
2019-03-31T07:16:29.365Z,99.90
2019-03-31T07:19:00.042Z,99.90
2019-03-31T07:21:31.838Z,99.90
2019-03-31T07:24:03.069Z,99.90
2019-03-31T07:26:35.007Z,99.90
2019-03-31T07:29:06.158Z,99.90
2019-03-31T07:31:37.949Z,99.90
2019-03-31T07:34:09.590Z,99.90
2019-03-31T07:36:40.699Z,99.90
2019-03-31T07:39:12.370Z,99.90
2019-03-31T07:41:44.489Z,99.90
2019-03-31T07:44:15.745Z,99.90
2019-03-31T07:46:47.657Z,99.90
2019-03-31T07:49:18.996Z,99.90
2019-03-31T07:51:50.423Z,99.90
2019-03-31T07:54:21.129Z,99.90
2019-03-31T07:56:53.119Z,99.90
2019-03-31T07:59:25.658Z,99.90
2019-03-31T08:01:56.457Z,99.90
2019-03-31T08:04:27.123Z,99.90
2019-03-31T08:06:58.833Z,99.90
2019-03-31T08:09:30.382Z,98.30
2019-03-31T08:12:02.607Z,95.40
2019-03-31T08:14:33.582Z,91.30
2019-03-31T08:17:05.031Z,88.90
2019-03-31T08:19:36.719Z,85.50
2019-03-31T08:22:08.443Z,81.60
2019-03-31T08:24:45.250Z,77.80
2019-03-31T08:27:17.282Z,72.90
2019-03-31T08:29:59.589Z,70.00
2019-03-31T08:32:20.903Z,68.30
2019-03-31T08:34:52.163Z,66.40
2019-03-31T08:37:22.928Z,63.90
2019-03-31T08:39:54.472Z,62.30
2019-03-31T08:42:25.601Z,59.80
2019-03-31T08:44:56.818Z,59.30
2019-03-31T08:47:28.518Z,58.40
2019-03-31T08:50:02.173Z,57.20
2019-03-31T08:52:33.670Z,55.80
2019-03-31T08:55:05.366Z,54.80
2019-03-31T08:57:36.319Z,53.70
2019-03-31T09:00:12.840Z,52.40
2019-03-31T09:02:43.831Z,51.80
2019-03-31T09:05:15.154Z,52.10
2019-03-31T09:07:45.874Z,51.90
2019-03-31T09:10:17.756Z,50.60
2019-03-31T09:12:49.324Z,49.80
2019-03-31T09:15:21.380Z,49.60
2019-03-31T09:17:54.264Z,49.70
2019-03-31T09:20:25.537Z,49.20
2019-03-31T09:22:56.475Z,48.10
2019-03-31T09:25:27.822Z,47.90
2019-03-31T09:27:59.584Z,46.30
2019-03-31T09:30:30.724Z,45.30
2019-03-31T09:33:01.599Z,44.40
2019-03-31T09:35:32.996Z,43.40
2019-03-31T09:38:04.378Z,42.60
2019-03-31T09:40:35.814Z,42.10
2019-03-31T09:43:06.834Z,41.60
2019-03-31T09:45:37.976Z,40.70
2019-03-31T09:48:09.176Z,40.10
2019-03-31T09:50:40.271Z,39.30
2019-03-31T09:53:12.098Z,39.00
2019-03-31T09:55:43.785Z,39.00
2019-03-31T09:58:14.741Z,38.50
2019-03-31T10:00:50.876Z,38.80
2019-03-31T10:03:23.440Z,38.70
2019-03-31T10:05:54.792Z,37.70
2019-03-31T10:08:26.764Z,37.70
2019-03-31T10:10:58.487Z,37.10
2019-03-31T10:13:29.875Z,37.00
2019-03-31T10:16:00.707Z,36.40
2019-03-31T10:18:32.185Z,35.50
2019-03-31T10:21:03.105Z,35.90
2019-03-31T10:23:34.476Z,35.80
2019-03-31T10:26:06.643Z,35.90
2019-03-31T10:28:38.400Z,35.30
2019-03-31T10:31:09.957Z,34.70
2019-03-31T10:33:41.342Z,34.40
2019-03-31T10:36:12.993Z,33.70
2019-03-31T10:38:44.337Z,33.80
2019-03-31T10:41:17.623Z,33.20
2019-03-31T10:43:48.675Z,33.60
2019-03-31T10:46:20.127Z,33.70
2019-03-31T10:48:51.817Z,33.50
2019-03-31T10:51:22.408Z,32.80
2019-03-31T10:53:54.186Z,30.90
2019-03-31T10:56:25.731Z,31.20
2019-03-31T10:58:57.287Z,30.00
2019-03-31T11:01:28.858Z,30.80
2019-03-31T11:04:00.097Z,31.20
2019-03-31T11:06:31.160Z,30.40
2019-03-31T11:09:01.661Z,31.30
2019-03-31T11:11:34.575Z,29.80
2019-03-31T11:14:05.240Z,29.90
2019-03-31T11:16:37.526Z,29.30
2019-03-31T11:19:08.329Z,30.60
2019-03-31T11:21:45.215Z,31.20
2019-03-31T11:24:15.933Z,31.00
2019-03-31T11:26:47.188Z,29.80
2019-03-31T11:29:18.429Z,30.00
2019-03-31T11:31:49.999Z,29.50
2019-03-31T11:34:21.785Z,29.30
2019-03-31T11:36:53.322Z,29.30
2019-03-31T11:39:24.529Z,29.70
2019-03-31T11:41:55.767Z,29.20
2019-03-31T11:44:27.932Z,28.70
2019-03-31T11:46:59.321Z,29.50
2019-03-31T11:49:30.825Z,29.30
2019-03-31T11:52:02.266Z,29.50
2019-03-31T11:54:34.027Z,28.90
2019-03-31T11:57:05.581Z,29.00
2019-03-31T11:59:36.975Z,28.80
2019-03-31T12:02:07.677Z,29.00
2019-03-31T12:04:39.229Z,29.30
2019-03-31T12:07:10.594Z,29.30
2019-03-31T12:09:41.644Z,29.50
2019-03-31T12:12:12.889Z,29.70
2019-03-31T12:14:44.421Z,28.70
2019-03-31T12:17:15.813Z,29.40
2019-03-31T12:19:48.807Z,29.10
2019-03-31T12:22:20.339Z,28.50
2019-03-31T12:24:52.514Z,28.30
2019-03-31T12:27:24.073Z,27.30
2019-03-31T12:29:55.241Z,28.40
2019-03-31T12:32:25.973Z,28.80
2019-03-31T12:34:57.713Z,29.70
2019-03-31T12:37:41.689Z,31.00
2019-03-31T12:40:02.671Z,31.20
2019-03-31T12:42:33.957Z,32.40
2019-03-31T12:45:06.481Z,32.90
2019-03-31T12:47:38.379Z,34.40
2019-03-31T12:50:09.929Z,34.70
2019-03-31T12:52:47.437Z,35.60
2019-03-31T12:55:13.889Z,36.50
2019-03-31T12:57:45.910Z,36.60
2019-03-31T13:00:18.426Z,36.70
2019-03-31T13:02:49.739Z,37.10
2019-03-31T13:05:20.714Z,37.80
2019-03-31T13:07:56.700Z,38.50
2019-03-31T13:10:26.089Z,38.90
2019-03-31T13:12:57.230Z,39.20
2019-03-31T13:15:28.502Z,39.10
2019-03-31T13:17:59.393Z,38.60
2019-03-31T13:20:30.422Z,38.40
2019-03-31T13:23:01.544Z,38.30
2019-03-31T13:25:32.845Z,38.40
2019-03-31T13:28:05.778Z,38.40
2019-03-31T13:30:37.311Z,38.60
2019-03-31T13:33:08.662Z,39.00
2019-03-31T13:35:39.920Z,40.30
2019-03-31T13:38:11.781Z,40.40
2019-03-31T13:40:44.369Z,40.10
2019-03-31T13:43:15.538Z,39.80
2019-03-31T13:45:47.246Z,38.90
2019-03-31T13:48:19.264Z,36.70
2019-03-31T13:50:50.610Z,33.80
2019-03-31T13:53:21.948Z,32.10
2019-03-31T13:55:54.333Z,31.80
2019-03-31T13:58:25.512Z,31.50
2019-03-31T14:01:00.170Z,31.50
2019-03-31T14:03:31.457Z,31.50
2019-03-31T14:06:02.404Z,30.70
2019-03-31T14:08:33.783Z,29.50
2019-03-31T14:11:05.113Z,29.20
2019-03-31T14:13:36.259Z,29.80
2019-03-31T14:16:07.105Z,29.90
2019-03-31T14:18:38.557Z,30.00
2019-03-31T14:21:09.649Z,29.80
2019-03-31T14:23:43.753Z,29.90
2019-03-31T14:26:13.767Z,29.40
2019-03-31T14:28:45.203Z,29.40
2019-03-31T14:31:16.183Z,29.10
2019-03-31T14:33:47.493Z,28.70
2019-03-31T14:36:18.645Z,28.90
2019-03-31T14:38:49.933Z,29.00
2019-03-31T14:41:21.975Z,28.50
2019-03-31T14:43:53.722Z,28.70
2019-03-31T14:46:24.881Z,28.80
2019-03-31T14:49:00.731Z,29.60
2019-03-31T14:51:38.406Z,29.40
2019-03-31T14:54:14.959Z,29.20
2019-03-31T14:56:47.132Z,28.90
2019-03-31T14:59:18.245Z,29.00
2019-03-31T15:01:49.576Z,29.20
2019-03-31T15:04:20.930Z,29.40
2019-03-31T15:06:52.697Z,30.20
2019-03-31T15:09:25.288Z,31.60
2019-03-31T15:11:56.636Z,32.60
2019-03-31T15:14:28.143Z,33.30
2019-03-31T15:16:59.354Z,33.60
2019-03-31T15:19:30.294Z,33.20
2019-03-31T15:22:01.635Z,32.80
2019-03-31T15:24:32.164Z,32.20
2019-03-31T15:27:03.320Z,32.20
2019-03-31T15:29:34.319Z,32.50
2019-03-31T15:32:05.436Z,32.50
2019-03-31T15:34:36.942Z,33.70
2019-03-31T15:37:08.730Z,36.00
2019-03-31T15:39:39.481Z,38.30
2019-03-31T15:42:10.964Z,40.00
2019-03-31T15:44:42.043Z,41.70
2019-03-31T15:47:14.377Z,43.30
2019-03-31T15:49:45.692Z,44.60
2019-03-31T15:52:17.768Z,45.80
2019-03-31T15:54:49.227Z,46.80
2019-03-31T15:57:19.982Z,47.60
2019-03-31T15:59:54.714Z,48.40
2019-03-31T16:02:27.333Z,48.70
2019-03-31T16:04:58.666Z,49.20
2019-03-31T16:07:30.488Z,49.80
2019-03-31T16:10:04.912Z,50.30
2019-03-31T16:12:35.822Z,50.40
2019-03-31T16:15:08.035Z,50.80
2019-03-31T16:17:38.924Z,51.20
2019-03-31T16:20:09.283Z,51.70
2019-03-31T16:22:40.307Z,52.20
2019-03-31T16:25:17.486Z,53.00
2019-03-31T16:27:48.030Z,53.40
2019-03-31T16:30:18.837Z,54.20
2019-03-31T16:32:49.376Z,55.10
2019-03-31T16:35:19.476Z,56.20
2019-03-31T16:37:50.830Z,57.20
2019-03-31T16:40:21.715Z,57.90
2019-03-31T16:42:53.946Z,58.40
2019-03-31T16:45:24.901Z,59.20
2019-03-31T16:47:55.710Z,59.20
2019-03-31T16:50:26.772Z,59.30
2019-03-31T16:52:57.274Z,59.50
2019-03-31T16:55:28.250Z,59.80
2019-03-31T16:57:59.378Z,60.00
2019-03-31T17:00:29.941Z,60.40
2019-03-31T17:03:00.266Z,60.60
2019-03-31T17:05:31.144Z,60.80
2019-03-31T17:08:01.734Z,60.90
2019-03-31T17:10:31.878Z,60.80
2019-03-31T17:13:02.806Z,60.30
2019-03-31T17:15:34.510Z,60.10
2019-03-31T17:18:05.652Z,59.90
2019-03-31T17:20:36.448Z,60.00
2019-03-31T17:23:07.439Z,60.30
2019-03-31T17:25:38.549Z,60.40
2019-03-31T17:28:10.345Z,60.60
2019-03-31T17:30:41.866Z,60.90
2019-03-31T17:33:12.429Z,61.20
2019-03-31T17:35:43.143Z,61.60
2019-03-31T17:38:14.081Z,62.20
2019-03-31T17:40:44.819Z,62.20
2019-03-31T17:43:15.561Z,62.40
2019-03-31T17:45:46.026Z,62.70
2019-03-31T17:48:17.045Z,62.90
2019-03-31T17:50:47.910Z,63.10
2019-03-31T17:53:18.112Z,63.40
2019-03-31T17:55:49.054Z,63.40
2019-03-31T17:58:20.203Z,63.20
2019-03-31T18:00:50.935Z,62.80
2019-03-31T18:03:21.827Z,62.70
2019-03-31T18:05:53.008Z,62.70
2019-03-31T18:08:23.922Z,62.90
2019-03-31T18:10:54.435Z,63.10
2019-03-31T18:13:25.254Z,63.50
2019-03-31T18:15:55.695Z,63.80
2019-03-31T18:18:25.867Z,64.10
2019-03-31T18:20:56.635Z,64.50
2019-03-31T18:23:27.171Z,64.80
2019-03-31T18:25:57.643Z,65.10
2019-03-31T18:28:31.097Z,65.10
2019-03-31T18:31:02.261Z,65.30
2019-03-31T18:33:33.407Z,65.70
2019-03-31T18:36:04.361Z,66.00
2019-03-31T18:38:35.089Z,66.40
2019-03-31T18:41:06.002Z,66.70
2019-03-31T18:43:50.547Z,66.80
2019-03-31T18:46:09.281Z,67.10
2019-03-31T18:48:40.304Z,67.20
2019-03-31T18:51:10.823Z,67.40
2019-03-31T18:53:46.421Z,67.60
2019-03-31T18:56:39.134Z,67.70
2019-03-31T18:59:20.090Z,67.60
2019-03-31T19:02:00.887Z,67.80
2019-03-31T19:05:08.490Z,68.00
2019-03-31T19:07:59.707Z,68.30
2019-03-31T19:10:49.988Z,68.70
2019-03-31T19:13:55.624Z,68.80
2019-03-31T19:16:40.326Z,69.20
2019-03-31T19:19:27.466Z,69.40
2019-03-31T19:22:10.403Z,69.70
2019-03-31T19:24:58.429Z,70.00
2019-03-31T19:27:58.244Z,70.00
2019-03-31T19:30:41.900Z,70.10
2019-03-31T19:33:40.269Z,70.20
2019-03-31T19:36:24.187Z,70.40
2019-03-31T19:39:06.531Z,70.70
2019-03-31T19:41:52.425Z,70.60
2019-03-31T19:44:39.449Z,70.90
2019-03-31T19:47:22.459Z,71.00
2019-03-31T19:50:06.325Z,71.20
2019-03-31T19:52:48.426Z,71.40
2019-03-31T19:55:31.356Z,71.50
2019-03-31T19:58:20.417Z,71.60
2019-03-31T20:01:15.533Z,71.70
2019-03-31T20:04:04.089Z,72.00
2019-03-31T20:06:53.256Z,72.10
2019-03-31T20:09:51.890Z,72.20
2019-03-31T20:12:34.262Z,72.40
2019-03-31T20:15:23.827Z,72.70
2019-03-31T20:18:08.090Z,72.90
2019-03-31T20:20:50.414Z,73.60
2019-03-31T20:23:52.078Z,73.80
2019-03-31T20:26:39.914Z,74.20
2019-03-31T20:29:17.187Z,74.20
2019-03-31T20:32:06.990Z,74.50
2019-03-31T20:34:46.342Z,75.00
2019-03-31T20:37:34.564Z,75.40
2019-03-31T20:40:35.112Z,75.90
2019-03-31T20:43:23.678Z,76.00
2019-03-31T20:45:54.471Z,77.30
2019-03-31T20:48:24.904Z,76.80
2019-03-31T20:50:57.326Z,76.80
2019-03-31T20:53:29.712Z,77.20
2019-03-31T20:56:00.509Z,77.50
2019-03-31T20:58:31.590Z,77.80
2019-03-31T21:01:02.942Z,78.00
2019-03-31T21:03:33.480Z,78.30
2019-03-31T21:06:04.417Z,78.80
2019-03-31T21:08:34.950Z,79.00
2019-03-31T21:11:06.100Z,79.40
2019-03-31T21:13:36.632Z,79.60
2019-03-31T21:16:07.386Z,80.00
2019-03-31T21:18:37.730Z,80.20
2019-03-31T21:21:08.852Z,80.50
2019-03-31T21:23:40.202Z,80.80
2019-03-31T21:26:10.614Z,81.30
2019-03-31T21:28:41.886Z,81.60
2019-03-31T21:31:12.628Z,81.90
2019-03-31T21:33:43.718Z,82.20
2019-03-31T21:36:14.232Z,82.50
2019-03-31T21:38:46.472Z,83.00
2019-03-31T21:41:17.370Z,83.40
2019-03-31T21:43:47.956Z,83.60
2019-03-31T21:46:18.493Z,84.00
2019-03-31T21:48:49.434Z,84.30
2019-03-31T21:51:19.759Z,84.50
2019-03-31T21:53:50.708Z,84.90
2019-03-31T21:56:21.238Z,85.20
2019-03-31T21:58:52.585Z,85.50
2019-03-31T22:01:23.174Z,86.00
2019-03-31T22:03:54.683Z,86.40
2019-03-31T22:06:25.620Z,86.80
2019-03-31T22:08:56.522Z,87.10
2019-03-31T22:11:27.442Z,87.50
2019-03-31T22:13:58.875Z,87.90
2019-03-31T22:16:28.937Z,88.30
2019-03-31T22:18:59.466Z,88.70
2019-03-31T22:21:30.261Z,89.30
2019-03-31T22:24:00.801Z,89.90
2019-03-31T22:26:31.668Z,90.00
2019-03-31T22:29:02.883Z,90.20
2019-03-31T22:31:33.416Z,90.40
2019-03-31T22:34:05.549Z,90.60
2019-03-31T22:36:36.515Z,90.70
2019-03-31T22:39:08.703Z,91.10
2019-03-31T22:41:39.243Z,91.40
2019-03-31T22:44:10.128Z,91.60
2019-03-31T22:46:53.706Z,91.80
2019-03-31T22:49:13.715Z,92.10
2019-03-31T22:51:44.856Z,92.30
2019-03-31T22:54:16.005Z,92.60
2019-03-31T22:56:46.387Z,92.80
2019-03-31T22:59:17.478Z,93.10
2019-03-31T23:01:47.945Z,93.40
2019-03-31T23:04:18.553Z,93.60
2019-03-31T23:06:48.895Z,93.90
2019-03-31T23:09:19.827Z,94.10
2019-03-31T23:11:51.372Z,94.30
2019-03-31T23:14:22.737Z,94.60
2019-03-31T23:16:53.469Z,94.90
2019-03-31T23:19:24.024Z,95.20
2019-03-31T23:21:54.739Z,95.50
2019-03-31T23:24:26.091Z,95.80
2019-03-31T23:26:56.695Z,96.20
2019-03-31T23:29:27.641Z,96.60
2019-03-31T23:31:58.111Z,97.00
2019-03-31T23:34:29.253Z,97.20
2019-03-31T23:36:59.981Z,97.50
2019-03-31T23:39:30.907Z,97.80
2019-03-31T23:42:01.681Z,98.20
2019-03-31T23:44:31.405Z,99.00
2019-03-31T23:47:02.528Z,99.50
2019-03-31T23:49:33.887Z,99.80
2019-03-31T23:52:04.204Z,99.90
2019-03-31T23:54:34.948Z,99.90
2019-03-31T23:57:06.078Z,99.90
2019-03-31T23:59:37.026Z,99.90
